Terminal Aerodrome Forecast
Issued by NWS

Home | Current Version | Previous Version | Text Only | Print | Product List | Glossary On
Versions: 1 2 3 4 5 6 7 8 9 10 11 12 13 14 15 16 17 18 19 20 21 22
664
FTUS41 KOKX 290558
TAFSWF
TAF
KSWF 290558Z 2906/3012 11008KT P6SM OVC045
     FM290900 10008KT 6SM -RA OVC035
     FM291100 10009KT 5SM -RA OVC025
     FM291400 10008KT 5SM -RA BR OVC015
     FM291700 12007KT 6SM -DZ OVC020
     FM292000 11007KT 6SM -DZ OVC015
     FM292300 13005KT 5SM BR OVC015
     FM300600 13005KT 5SM BR OVC009
     FM300800 15005KT 5SM BR OVC007
      AMD NOT SKED=

USA.gov is the U.S. government's official web portal to all federal, state and local government web resources and services.